Martin, TN (38237)

9:12 AM CDT on March 29, 2015 (GMT -0500)
City of Martin Fire Department | | Change Station
CLOSE
Current Station
Personal Weather Station
Location: Martin, TN
Elevation: 413 ft
Nearby Weather Stations

Elev 413 ft 36.34 °N, 88.85 °W | Updated 1 minute ago

Clear
Clear
43.9 °F
Feels Like 39 °F
N
7.8
Wind Variable Wind from SSE

Today
High -- | Low -- °F
--% Chance of Precip.
Yesterday
High -- | Low -- °F
Precip. -- in
6:46 AM 7:14 PM
Waxing Gibbous, 71% visible
Pressure 30.26 in
Visibility 10.0 miles
Clouds Clear
Windchill 39 °F
Dew Point 20 °F
Humidity 38%
Rainfall 0.00 in
Snow Depth Not available.
UV 2 out of 12
Pollen 9.20 out of 12
Air Quality Not available.
Flu Activity Not available.
METAR KUCY 291355Z AUTO 15010KT 10SM CLR 03/M06 A3026 RMK

More Conditions Fewer Conditions

Pressure 30.26 in
Visibility 10.0 miles
Clouds Clear
Windchill 39 °F
Dew Point 20 °F
Humidity 38%
Rainfall 0.00 in
Snow Depth Not available.
UV 2 out of 12
Pollen 9.20 out of 12
Air Quality Not available.
Flu Activity Not available.
METAR KUCY 291355Z AUTO 15010KT 10SM CLR 03/M06 A3026 RMK

More Conditions Fewer Conditions

10-Day Weather Forecast

Almanac

Astronomy

Mar. 29, 2015 Rise Set
Actual Time
Civil Twilight
Nautical Twilight
Astronomical Twilight
Moon
Length of Visible Light
Length of Day
Tomorrow will be .
, % of the Moon is Illuminated

Today's Extremes

State Highs State Lows

Community

WunderPhotos

Upload Photos

1,809,242 photos uploaded!

WunderBlogs® & News

Nearby

Air Quality

  Air Quality AQ Index Pollutant
Not available.

Snow Depth

Station Depth Elevation

Earthquake Activity

City Distance Mag. Time & Date
Minimum magnitude displayed is 2.5.

Coastal Water Temperatures

Place Temperature

Stations

Nearby Weather Stations

Station Location Temp. Windchill Dew Point Humidity Wind Precip. Elev Updated Type